Terminal Aerodrome Forecast
Issued by NWS Wilmington, NC

Home | Current Version | Previous Version | Text Only | Print | Product List | Glossary On
Versions: 1 2 3 4 5 6 7 8 9 10 11 12 13 14 15 16 17 18 19 20 21 22 23 24
000
FTUS42 KILM 122300
TAFILM
TAF
KILM 122320Z 1300/1324 16004KT P6SM FEW030
     FM130900 00000KT 4SM BR FEW010
     FM131300 22004KT P6SM SCT020
     FM131700 18008KT P6SM SCT040=

USA.gov is the U.S. government's official web portal to all federal, state and local government web resources and services.